Time;durP1;ratioP1;P1;durP2;ratioP2;P2;SDS_P1;SDS_P2;PMS_P1;PMS_P2;Temp;Humidity;BMP_temperature;BMP_pressure;BME280_temperature;BME280_humidity;BME280_pressure;Samples;Min_cycle;Max_cycle;Signal;HPM_P1;HPM_P2
2021/01/21 00:00:30;;;;;;;0.28;0.20;;;11.00;91.30;;;;;;4200286;28;20143;-89
2021/01/21 00:02:31;;;;;;;0.13;0.13;;;11.00;91.30;;;;;;4200435;28;20565;-89
2021/01/21 00:04:35;;;;;;;0.55;0.30;;;11.00;91.60;;;;;;4214719;28;20040;-89
2021/01/21 00:06:39;;;;;;;0.20;0.20;;;11.00;91.70;;;;;;4221152;28;20024;-90
2021/01/21 00:08:40;;;;;;;0.28;0.28;;;11.00;91.90;;;;;;4212139;28;20068;-90
2021/01/21 00:10:45;;;;;;;0.47;0.20;;;10.90;92.10;;;;;;4186394;28;20053;-88
2021/01/21 00:12:53;;;;;;;0.20;0.20;;;10.90;92.20;;;;;;4209359;28;20049;-89
2021/01/21 00:15:09;;;;;;;0.20;0.20;;;10.90;92.40;;;;;;4198367;28;20075;-93
2021/01/21 00:17:12;;;;;;;0.30;0.30;;;10.90;92.60;;;;;;4208630;28;20053;-90
2021/01/21 00:19:15;;;;;;;0.20;0.20;;;10.90;92.50;;;;;;4181751;28;20048;-88
2021/01/21 00:21:18;;;;;;;8.82;0.65;;;10.90;92.70;;;;;;4202826;28;20091;-89
2021/01/21 00:23:19;;;;;;;0.20;0.20;;;10.80;92.80;;;;;;4169409;28;20132;-88
2021/01/21 00:25:22;;;;;;;0.65;0.65;;;10.80;92.60;;;;;;4186314;28;20121;-89
2021/01/21 00:27:24;;;;;;;0.20;0.20;;;10.80;92.60;;;;;;4196315;28;20040;-89
2021/01/21 00:29:26;;;;;;;0.20;0.20;;;10.80;92.90;;;;;;4161646;28;20050;-90
2021/01/21 00:31:27;;;;;;;0.20;0.20;;;10.80;92.90;;;;;;4180638;28;20073;-89
2021/01/21 00:33:28;;;;;;;0.30;0.20;;;10.70;92.80;;;;;;4180124;28;20149;-89
2021/01/21 00:35:30;;;;;;;0.28;0.28;;;10.70;93.00;;;;;;4181634;28;20068;-90
2021/01/21 00:37:31;;;;;;;0.20;0.20;;;10.80;92.90;;;;;;4182041;28;20433;-89
2021/01/21 00:39:34;;;;;;;0.50;0.50;;;10.80;92.80;;;;;;4165390;28;20049;-89
2021/01/21 00:41:35;;;;;;;0.20;0.20;;;10.70;92.80;;;;;;4179479;28;20480;-90
2021/01/21 00:43:36;;;;;;;0.30;0.30;;;10.70;93.10;;;;;;4167801;28;20072;-91
2021/01/21 00:45:38;;;;;;;0.20;0.20;;;10.70;93.20;;;;;;4212186;28;20246;-91
2021/01/21 00:47:39;;;;;;;0.20;0.20;;;10.80;93.00;;;;;;4167195;28;20140;-90
2021/01/21 00:49:40;;;;;;;0.10;0.10;;;10.70;93.10;;;;;;4167218;28;20611;-93
2021/01/21 00:51:42;;;;;;;0.47;0.20;;;10.80;93.10;;;;;;4179570;28;20049;-90
2021/01/21 00:53:43;;;;;;;0.35;0.35;;;10.70;93.30;;;;;;4167091;28;20516;-90
2021/01/21 00:55:44;;;;;;;0.20;0.20;;;10.70;93.50;;;;;;4165098;28;20073;-90
2021/01/21 00:57:46;;;;;;;0.17;0.17;;;10.70;93.50;;;;;;4181737;28;20060;-90
2021/01/21 00:59:47;;;;;;;0.10;0.10;;;10.70;93.70;;;;;;4174603;28;20045;-90
2021/01/21 01:01:48;;;;;;;0.65;0.30;;;10.70;93.70;;;;;;4197995;28;20147;-89
2021/01/21 01:03:51;;;;;;;0.70;0.30;;;10.70;93.70;;;;;;4196270;28;20052;-90
2021/01/21 01:05:52;;;;;;;0.20;0.20;;;10.70;93.90;;;;;;4197526;28;20588;-89
2021/01/21 01:07:53;;;;;;;0.30;0.30;;;10.70;93.90;;;;;;4197371;28;20140;-89
2021/01/21 01:09:55;;;;;;;0.10;0.10;;;10.60;94.30;;;;;;4196261;28;20441;-89
2021/01/21 01:11:56;;;;;;;1.27;0.52;;;10.60;94.30;;;;;;4164465;28;20058;-90
2021/01/21 01:13:57;;;;;;;0.13;0.13;;;10.60;94.50;;;;;;4181346;28;20078;-90
2021/01/21 01:15:59;;;;;;;0.20;0.20;;;10.50;94.70;;;;;;4192385;28;20052;-89
2021/01/21 01:18:00;;;;;;;0.60;0.40;;;10.50;94.60;;;;;;4197709;28;20048;-90
2021/01/21 01:20:02;;;;;;;0.30;0.20;;;10.50;94.70;;;;;;4197779;28;20409;-90
2021/01/21 01:22:03;;;;;;;0.10;0.10;;;10.50;94.80;;;;;;4197004;28;20052;-89
2021/01/21 01:24:05;;;;;;;0.10;0.10;;;10.50;94.70;;;;;;4164317;28;20046;-90
2021/01/21 01:26:06;;;;;;;0.10;0.10;;;10.50;94.90;;;;;;4179431;28;20136;-91
2021/01/21 01:28:07;;;;;;;0.20;0.20;;;10.50;95.40;;;;;;4181257;28;20131;-90
2021/01/21 01:30:13;;;;;;;0.20;0.20;;;10.40;94.90;;;;;;4163949;28;20061;-89
2021/01/21 01:32:14;;;;;;;0.20;0.20;;;10.40;95.30;;;;;;4194680;28;20123;-90
2021/01/21 01:34:16;;;;;;;0.10;0.10;;;10.40;95.40;;;;;;4165019;28;20081;-89
2021/01/21 01:36:17;;;;;;;0.20;0.20;;;10.40;95.50;;;;;;4163903;28;20041;-91
2021/01/21 01:38:18;;;;;;;1.60;1.50;;;10.40;95.80;;;;;;4164277;28;20059;-90
2021/01/21 01:40:20;;;;;;;0.25;0.20;;;10.30;96.00;;;;;;4165013;28;20438;-89
2021/01/21 01:42:21;;;;;;;0.20;0.20;;;10.30;95.80;;;;;;4165152;28;20053;-89
2021/01/21 01:44:22;;;;;;;0.20;0.20;;;10.30;96.00;;;;;;4164950;28;20086;-89
2021/01/21 01:46:25;;;;;;;1.10;0.95;;;10.30;95.60;;;;;;4181916;28;20053;-89
2021/01/21 01:48:27;;;;;;;0.10;0.10;;;10.30;95.90;;;;;;4178163;28;20072;-93
2021/01/21 01:50:28;;;;;;;0.20;0.20;;;10.30;96.10;;;;;;4179796;28;20045;-90
2021/01/21 01:52:29;;;;;;;0.13;0.13;;;10.30;96.10;;;;;;4179849;28;20067;-89
2021/01/21 01:54:30;;;;;;;0.10;0.10;;;10.30;95.80;;;;;;4179862;28;20398;-91
2021/01/21 01:56:32;;;;;;;0.25;0.22;;;10.30;95.90;;;;;;4167842;28;20057;-89
2021/01/21 01:58:34;;;;;;;0.17;0.17;;;10.30;95.80;;;;;;4167334;28;20500;-89
2021/01/21 02:00:36;;;;;;;0.10;0.10;;;10.30;95.70;;;;;;4151338;28;20049;-89
2021/01/21 02:02:37;;;;;;;0.30;0.30;;;10.30;95.60;;;;;;4172672;28;20136;-89
2021/01/21 02:04:39;;;;;;;0.20;0.20;;;10.30;95.70;;;;;;4180649;28;20075;-89
2021/01/21 02:06:41;;;;;;;0.20;0.20;;;10.30;95.70;;;;;;4173758;28;20049;-89
2021/01/21 02:08:42;;;;;;;0.30;0.30;;;10.20;95.90;;;;;;4180023;28;20045;-90
2021/01/21 02:10:46;;;;;;;0.43;0.43;;;10.30;95.90;;;;;;4196555;28;20052;-89
2021/01/21 02:13:08;;;;;;;0.20;0.20;;;10.30;96.00;;;;;;4164476;28;20505;-89
2021/01/21 02:15:31;;;;;;;0.10;0.10;;;10.30;96.10;;;;;;4190455;28;20036;-90
2021/01/21 02:18:14;;;;;;;0.10;0.10;;;10.30;96.20;;;;;;4195512;28;20036;-89
2021/01/21 02:20:47;;;;;;;0.40;0.40;;;10.30;96.30;;;;;;4186686;28;20045;-89
2021/01/21 02:23:06;;;;;;;0.10;0.10;;;10.30;96.40;;;;;;4181741;28;20059;-88
2021/01/21 02:25:12;;;;;;;0.30;0.30;;;10.40;96.40;;;;;;4166941;28;20077;-89
2021/01/21 02:27:15;;;;;;;0.20;0.20;;;10.40;96.40;;;;;;4160794;28;20057;-90
2021/01/21 02:29:35;;;;;;;0.10;0.10;;;10.30;96.40;;;;;;4179439;28;20045;-89
2021/01/21 02:32:08;;;;;;;0.98;0.65;;;10.30;96.60;;;;;;4164598;28;20064;-89
2021/01/21 02:34:26;;;;;;;0.20;0.20;;;10.40;96.70;;;;;;4163748;28;20469;-90
2021/01/21 02:36:33;;;;;;;0.45;0.45;;;10.40;96.70;;;;;;4131152;28;20042;-90
2021/01/21 02:38:35;;;;;;;0.35;0.35;;;10.40;96.90;;;;;;4178915;28;20053;-89
2021/01/21 02:40:36;;;;;;;0.10;0.10;;;10.40;96.90;;;;;;4163632;28;20055;-89
2021/01/21 02:42:45;;;;;;;0.10;0.10;;;10.30;97.10;;;;;;4164004;28;20064;-90
2021/01/21 02:44:47;;;;;;;0.10;0.10;;;10.30;97.20;;;;;;4166253;28;20490;-90
2021/01/21 02:46:48;;;;;;;0.20;0.20;;;10.40;97.20;;;;;;4135684;28;20149;-89
2021/01/21 02:48:50;;;;;;;0.20;0.20;;;10.40;97.30;;;;;;4149984;28;20054;-89
2021/01/21 02:51:11;;;;;;;0.10;0.10;;;10.40;97.30;;;;;;4149275;28;20050;-89
2021/01/21 02:53:12;;;;;;;0.20;0.20;;;10.40;97.40;;;;;;4166284;28;20045;-89
2021/01/21 02:55:22;;;;;;;0.10;0.10;;;10.40;97.50;;;;;;4146720;28;20058;-89
2021/01/21 02:57:28;;;;;;;0.20;0.20;;;10.40;97.50;;;;;;4154164;28;20056;-89
2021/01/21 02:59:29;;;;;;;0.17;0.17;;;10.40;97.50;;;;;;4134186;28;20550;-90
2021/01/21 03:01:33;;;;;;;0.20;0.20;;;10.30;97.70;;;;;;4150102;28;20049;-89
2021/01/21 03:03:35;;;;;;;0.37;0.37;;;10.30;97.80;;;;;;4141495;28;20057;-90
2021/01/21 03:05:36;;;;;;;0.20;0.20;;;10.30;97.90;;;;;;4129484;28;20310;-89
2021/01/21 03:07:37;;;;;;;0.22;0.22;;;10.30;97.80;;;;;;4150298;28;20145;-90
2021/01/21 03:09:42;;;;;;;1.00;0.22;;;10.30;98.00;;;;;;4162602;28;20076;-89
2021/01/21 03:11:44;;;;;;;0.20;0.20;;;10.30;98.10;;;;;;4161117;28;20417;-91
2021/01/21 03:13:45;;;;;;;0.10;0.10;;;10.30;98.10;;;;;;4169187;28;20061;-89
2021/01/21 03:15:46;;;;;;;0.20;0.20;;;10.30;98.30;;;;;;4183516;28;20067;-90
2021/01/21 03:17:48;;;;;;;0.10;0.10;;;10.30;98.10;;;;;;4174516;28;20135;-89
2021/01/21 03:19:49;;;;;;;0.20;0.20;;;10.30;98.30;;;;;;4181838;28;20048;-88
2021/01/21 03:21:51;;;;;;;0.20;0.20;;;10.30;98.30;;;;;;4193035;28;20052;-89
2021/01/21 03:23:52;;;;;;;0.17;0.17;;;10.30;98.40;;;;;;4180972;28;20144;-88
2021/01/21 03:25:54;;;;;;;0.20;0.20;;;10.40;98.60;;;;;;4166250;28;20136;-89
2021/01/21 03:27:56;;;;;;;0.40;0.20;;;10.30;98.90;;;;;;4199864;28;20144;-89
2021/01/21 03:29:57;;;;;;;0.20;0.20;;;10.30;99.00;;;;;;4195712;28;20079;-88
2021/01/21 03:31:58;;;;;;;0.20;0.20;;;10.30;98.70;;;;;;4166517;28;21069;-89
2021/01/21 03:34:01;;;;;;;0.10;0.10;;;10.30;98.70;;;;;;4167224;28;20061;-88
2021/01/21 03:36:03;;;;;;;0.20;0.20;;;10.30;98.80;;;;;;4158884;28;20498;-89
2021/01/21 03:38:04;;;;;;;0.17;0.17;;;10.30;99.00;;;;;;4179716;28;20067;-90
2021/01/21 03:40:09;;;;;;;0.20;0.20;;;10.30;98.80;;;;;;4183329;28;20053;-88
2021/01/21 03:42:11;;;;;;;0.20;0.10;;;10.30;98.80;;;;;;4192429;28;20049;-88
2021/01/21 03:44:12;;;;;;;0.20;0.20;;;10.30;98.70;;;;;;4179680;28;20135;-88
2021/01/21 03:46:13;;;;;;;0.20;0.20;;;10.30;98.80;;;;;;4166951;28;20053;-88
2021/01/21 03:48:15;;;;;;;0.20;0.20;;;10.30;98.90;;;;;;4182252;28;20047;-88
2021/01/21 03:50:16;;;;;;;0.10;0.10;;;10.30;98.90;;;;;;4177787;28;20080;-89
2021/01/21 03:52:17;;;;;;;0.20;0.20;;;10.30;98.90;;;;;;4180047;28;20063;-88
2021/01/21 03:54:20;;;;;;;0.10;0.10;;;10.30;98.80;;;;;;4165371;28;20060;-89
2021/01/21 03:56:21;;;;;;;0.10;0.10;;;10.30;98.70;;;;;;4166499;28;20136;-89
2021/01/21 03:58:22;;;;;;;0.22;0.22;;;10.30;98.70;;;;;;4166522;28;20081;-89
2021/01/21 04:00:24;;;;;;;0.47;0.47;;;10.40;98.70;;;;;;4165868;28;20140;-89
2021/01/21 04:02:25;;;;;;;0.20;0.20;;;10.30;98.50;;;;;;4195647;28;20139;-89
2021/01/21 04:04:27;;;;;;;0.30;0.30;;;10.40;98.50;;;;;;4166694;28;20048;-89
2021/01/21 04:06:28;;;;;;;0.10;0.10;;;10.40;98.60;;;;;;4166651;28;20057;-88
2021/01/21 04:08:30;;;;;;;0.50;0.30;;;10.40;98.50;;;;;;4183106;28;20052;-89
2021/01/21 04:10:31;;;;;;;0.30;0.20;;;10.40;98.30;;;;;;4183174;28;20057;-88
2021/01/21 04:12:32;;;;;;;0.40;0.25;;;10.50;98.10;;;;;;4182884;28;20056;-88
2021/01/21 04:14:34;;;;;;;0.20;0.20;;;10.40;98.20;;;;;;4165947;28;20057;-89
2021/01/21 04:16:35;;;;;;;0.30;0.30;;;10.50;98.10;;;;;;4182572;28;20059;-89
2021/01/21 04:18:37;;;;;;;0.40;0.20;;;10.50;98.10;;;;;;4181563;28;20140;-89
2021/01/21 04:20:39;;;;;;;0.82;0.47;;;10.50;98.20;;;;;;4182416;28;20440;-89
2021/01/21 04:22:40;;;;;;;1.70;0.40;;;10.50;98.10;;;;;;4168018;28;20187;-88
2021/01/21 04:24:41;;;;;;;0.20;0.20;;;10.50;98.10;;;;;;4198538;28;20136;-89
2021/01/21 04:26:42;;;;;;;1.10;0.20;;;10.50;98.20;;;;;;4182545;28;20140;-89
2021/01/21 04:28:44;;;;;;;0.10;0.10;;;10.50;98.20;;;;;;4182870;28;20048;-89
2021/01/21 04:30:45;;;;;;;0.15;0.15;;;10.40;98.00;;;;;;4185438;28;20111;-89
2021/01/21 04:32:46;;;;;;;0.20;0.20;;;10.50;98.00;;;;;;4182467;28;20493;-89
2021/01/21 04:34:47;;;;;;;0.32;0.32;;;10.50;97.90;;;;;;4181398;28;20119;-89
2021/01/21 04:36:49;;;;;;;0.20;0.20;;;10.50;97.80;;;;;;4181633;28;20513;-90
2021/01/21 04:38:50;;;;;;;0.22;0.22;;;10.50;97.80;;;;;;4182015;28;20056;-89
2021/01/21 04:40:51;;;;;;;0.40;0.32;;;10.50;97.90;;;;;;4181009;28;20048;-89
2021/01/21 04:42:53;;;;;;;1.85;0.40;;;10.50;98.00;;;;;;4179846;28;20059;-89
2021/01/21 04:44:54;;;;;;;0.30;0.30;;;10.50;98.10;;;;;;4182551;28;20549;-89
2021/01/21 04:46:56;;;;;;;0.50;0.32;;;10.40;98.10;;;;;;4165760;28;20525;-89
2021/01/21 04:48:58;;;;;;;0.10;0.10;;;10.50;98.10;;;;;;4198224;28;20057;-89
2021/01/21 04:51:00;;;;;;;0.20;0.20;;;10.40;98.20;;;;;;4157770;28;20045;-89
2021/01/21 04:53:03;;;;;;;0.10;0.10;;;10.40;98.20;;;;;;4179735;28;20060;-90
2021/01/21 04:55:27;;;;;;;5.05;0.25;;;10.40;98.20;;;;;;4183894;28;20455;-89
2021/01/21 04:57:43;;;;;;;0.20;0.20;;;10.40;98.30;;;;;;4182987;28;20144;-89
2021/01/21 04:59:44;;;;;;;0.40;0.40;;;10.40;98.30;;;;;;4182874;28;20581;-88
2021/01/21 05:01:45;;;;;;;0.13;0.13;;;10.30;98.40;;;;;;4182702;28;20026;-89
2021/01/21 05:03:47;;;;;;;0.10;0.10;;;10.40;98.40;;;;;;4165108;28;20081;-89
2021/01/21 05:05:48;;;;;;;0.20;0.20;;;10.30;98.30;;;;;;4162190;28;20054;-88
2021/01/21 05:07:49;;;;;;;0.52;0.52;;;10.40;98.10;;;;;;4181087;28;20057;-88
2021/01/21 05:09:52;;;;;;;0.25;0.25;;;10.40;98.10;;;;;;4179452;28;20581;-88
2021/01/21 05:11:54;;;;;;;0.20;0.20;;;10.40;98.10;;;;;;4158623;28;20414;-88
2021/01/21 05:13:56;;;;;;;0.10;0.10;;;10.50;97.70;;;;;;4165064;28;20053;-89
2021/01/21 05:15:57;;;;;;;0.20;0.20;;;10.50;97.80;;;;;;4196298;28;20404;-90
2021/01/21 05:18:01;;;;;;;0.22;0.22;;;10.50;97.80;;;;;;4195623;28;20057;-88
2021/01/21 05:20:03;;;;;;;0.20;0.20;;;10.50;97.70;;;;;;4165579;28;20481;-88
2021/01/21 05:22:04;;;;;;;0.20;0.20;;;10.50;97.60;;;;;;4181727;28;20059;-88
2021/01/21 05:24:10;;;;;;;0.10;0.10;;;10.50;97.40;;;;;;4165524;28;20049;-89
2021/01/21 05:26:12;;;;;;;0.10;0.10;;;10.50;97.40;;;;;;4165389;28;20057;-88
2021/01/21 05:28:13;;;;;;;0.57;0.17;;;10.50;97.30;;;;;;4181633;28;20132;-88
2021/01/21 05:30:15;;;;;;;0.20;0.20;;;10.50;97.30;;;;;;4179165;28;20155;-89
2021/01/21 05:32:18;;;;;;;0.10;0.10;;;10.50;97.20;;;;;;4164447;28;20041;-88
2021/01/21 05:34:19;;;;;;;0.20;0.20;;;10.60;97.10;;;;;;4165391;28;20108;-89
2021/01/21 05:36:20;;;;;;;0.20;0.20;;;10.60;97.10;;;;;;4164996;28;20505;-87
2021/01/21 05:38:22;;;;;;;0.20;0.20;;;10.60;97.00;;;;;;4166149;28;20140;-89
2021/01/21 05:40:24;;;;;;;0.20;0.20;;;10.60;97.10;;;;;;4196909;28;20135;-88
2021/01/21 05:42:25;;;;;;;0.10;0.10;;;10.60;96.90;;;;;;4171200;28;20143;-88
2021/01/21 05:44:26;;;;;;;0.10;0.10;;;10.70;96.90;;;;;;4177583;28;20041;-88
2021/01/21 05:46:28;;;;;;;0.20;0.20;;;10.70;96.90;;;;;;4181244;28;20049;-88
2021/01/21 05:48:32;;;;;;;0.13;0.13;;;10.70;96.80;;;;;;4181736;28;20104;-88
2021/01/21 05:50:35;;;;;;;0.20;0.20;;;10.70;96.80;;;;;;4143640;28;20061;-88
2021/01/21 05:52:37;;;;;;;0.10;0.10;;;10.70;96.80;;;;;;4182480;28;20052;-89
2021/01/21 05:54:40;;;;;;;0.10;0.10;;;10.70;96.80;;;;;;4197522;28;20076;-88
2021/01/21 05:56:41;;;;;;;0.15;0.15;;;10.70;96.80;;;;;;4180057;28;20048;-89
2021/01/21 05:58:43;;;;;;;0.30;0.30;;;10.70;96.90;;;;;;4164137;28;20050;-88
2021/01/21 06:00:44;;;;;;;0.20;0.20;;;10.80;96.90;;;;;;4195916;28;20067;-88
2021/01/21 06:02:49;;;;;;;1.45;1.05;;;10.80;97.00;;;;;;4161567;28;20128;-90
2021/01/21 06:04:51;;;;;;;0.20;0.20;;;10.80;97.00;;;;;;4179970;28;20049;-89
2021/01/21 06:06:53;;;;;;;0.93;0.90;;;10.80;97.10;;;;;;4178444;28;20073;-89
2021/01/21 06:08:54;;;;;;;0.10;0.10;;;10.90;97.00;;;;;;4174088;28;20136;-88
2021/01/21 06:10:57;;;;;;;0.10;0.10;;;10.80;97.20;;;;;;4164140;28;20048;-88
2021/01/21 06:12:58;;;;;;;0.10;0.10;;;10.90;97.10;;;;;;4162990;28;20136;-91
2021/01/21 06:15:00;;;;;;;1.67;1.58;;;10.80;97.10;;;;;;4172986;28;20140;-88
2021/01/21 06:17:01;;;;;;;0.57;0.25;;;10.80;97.10;;;;;;4177764;28;20521;-89
2021/01/21 06:19:03;;;;;;;0.28;0.28;;;10.90;97.10;;;;;;4179886;28;20055;-89
2021/01/21 06:21:06;;;;;;;0.22;0.17;;;10.90;96.90;;;;;;4180126;28;20083;-87
2021/01/21 06:23:10;;;;;;;0.20;0.20;;;11.00;96.70;;;;;;4163956;28;20480;-88
2021/01/21 06:25:15;;;;;;;1.20;0.20;;;10.90;96.60;;;;;;4159782;28;20506;-87
2021/01/21 06:27:16;;;;;;;;;;;11.00;96.60;;;;;;4180698;28;20052;-88
2021/01/21 06:29:18;;;;;;;0.10;0.10;;;11.00;96.70;;;;;;4182833;28;19927;-89
2021/01/21 06:31:20;;;;;;;0.20;0.20;;;11.00;96.70;;;;;;4180281;28;20135;-88
2021/01/21 06:33:23;;;;;;;0.10;0.10;;;11.00;96.70;;;;;;4172351;28;20132;-88
2021/01/21 06:35:24;;;;;;;0.15;0.10;;;11.00;96.90;;;;;;4168410;28;20479;-88
2021/01/21 06:37:25;;;;;;;0.10;0.10;;;11.00;97.00;;;;;;4163855;28;20148;-89
2021/01/21 06:39:47;;;;;;;0.10;0.10;;;11.00;97.10;;;;;;4177511;28;20098;-88
2021/01/21 06:42:02;;;;;;;0.10;0.10;;;11.00;97.10;;;;;;4167214;28;20140;-89
2021/01/21 06:44:04;;;;;;;0.10;0.10;;;11.00;97.20;;;;;;4162825;28;20132;-88
2021/01/21 06:46:07;;;;;;;0.10;0.10;;;11.00;97.20;;;;;;4180491;28;20059;-90
2021/01/21 06:48:10;;;;;;;0.52;0.52;;;10.90;97.20;;;;;;4179034;28;20045;-89
2021/01/21 06:50:13;;;;;;;0.30;0.30;;;11.00;97.10;;;;;;4163535;28;20136;-89
2021/01/21 06:52:14;;;;;;;0.60;0.10;;;11.00;97.10;;;;;;4181739;28;20533;-88
2021/01/21 06:54:16;;;;;;;0.22;0.22;;;11.00;97.10;;;;;;4180191;28;20424;-90
2021/01/21 06:56:17;;;;;;;0.20;0.20;;;11.00;97.00;;;;;;4163480;28;20054;-88
2021/01/21 06:58:43;;;;;;;1.02;0.35;;;11.00;97.00;;;;;;4163885;28;20506;-91
2021/01/21 07:00:45;;;;;;;0.20;0.20;;;11.00;97.00;;;;;;4193695;28;20515;-86
2021/01/21 07:02:47;;;;;;;0.28;0.20;;;11.10;97.00;;;;;;4194881;28;20053;-85
2021/01/21 07:05:06;;;;;;;0.10;0.10;;;11.10;97.10;;;;;;4178531;28;20158;-85
2021/01/21 07:07:12;;;;;;;0.10;0.10;;;11.10;97.10;;;;;;4198198;28;20083;-89
2021/01/21 07:09:13;;;;;;;0.63;0.30;;;11.10;97.10;;;;;;4194393;28;20075;-87
2021/01/21 07:11:14;;;;;;;0.10;0.10;;;11.10;97.10;;;;;;4161815;28;20114;-87
2021/01/21 07:13:17;;;;;;;0.20;0.20;;;11.10;97.30;;;;;;4196164;28;20048;-88
2021/01/21 07:15:19;;;;;;;0.30;0.30;;;11.10;97.40;;;;;;4194386;28;20084;-86
2021/01/21 07:17:20;;;;;;;0.47;0.47;;;11.10;97.50;;;;;;4177884;28;20045;-86
2021/01/21 07:19:49;;;;;;;0.52;0.25;;;11.10;97.50;;;;;;4212908;28;20519;-86
2021/01/21 07:21:53;;;;;;;0.10;0.10;;;11.10;97.70;;;;;;4195756;28;20054;-86
2021/01/21 07:23:55;;;;;;;0.20;0.20;;;11.10;97.40;;;;;;4161019;28;20099;-85
2021/01/21 07:26:14;;;;;;;0.20;0.20;;;11.10;97.30;;;;;;4211162;28;20044;-85
2021/01/21 07:28:51;;;;;;;2.70;1.17;;;11.10;97.20;;;;;;4198130;28;20048;-85
2021/01/21 07:30:52;;;;;;;0.20;0.15;;;11.10;97.00;;;;;;4180808;28;20049;-85
2021/01/21 07:33:26;;;;;;;0.20;0.20;;;11.10;96.90;;;;;;4197221;28;20056;-86
2021/01/21 07:35:34;;;;;;;0.10;0.10;;;11.10;96.90;;;;;;4182562;28;20045;-86
2021/01/21 07:37:41;;;;;;;0.20;0.20;;;11.10;96.90;;;;;;4165652;28;20151;-85
2021/01/21 07:40:03;;;;;;;0.22;0.22;;;11.20;97.00;;;;;;4182877;28;20049;-84
2021/01/21 07:42:04;;;;;;;0.20;0.20;;;11.20;96.90;;;;;;4165515;28;20515;-86
2021/01/21 07:44:06;;;;;;;0.30;0.30;;;11.20;96.90;;;;;;4151532;28;20048;-84
2021/01/21 07:46:26;;;;;;;0.20;0.20;;;11.30;96.50;;;;;;4165596;28;20133;-84
2021/01/21 07:48:28;;;;;;;0.10;0.10;;;11.30;96.30;;;;;;4186522;28;20606;-89
2021/01/21 07:50:30;;;;;;;0.22;0.20;;;11.30;96.10;;;;;;4169132;28;20065;-86
2021/01/21 07:52:41;;;;;;;0.30;0.30;;;11.30;96.10;;;;;;4181243;28;20070;-85
2021/01/21 07:54:48;;;;;;;0.10;0.10;;;11.40;96.10;;;;;;4166285;28;20049;-85
2021/01/21 07:56:49;;;;;;;0.75;0.20;;;11.40;96.10;;;;;;4183356;28;20053;-84
2021/01/21 07:59:00;;;;;;;0.20;0.17;;;11.40;96.20;;;;;;4166162;28;20084;-83
2021/01/21 08:01:10;;;;;;;0.30;0.30;;;11.40;96.40;;;;;;4180886;28;20061;-85
2021/01/21 08:03:12;;;;;;;0.10;0.10;;;11.40;96.30;;;;;;4165334;28;20049;-87
2021/01/21 08:05:14;;;;;;;1.15;0.22;;;11.40;96.40;;;;;;4165754;28;20045;-85
2021/01/21 08:07:16;;;;;;;0.10;0.10;;;11.40;96.40;;;;;;4173585;28;20532;-85
2021/01/21 08:09:21;;;;;;;0.17;0.17;;;11.50;96.30;;;;;;4163286;28;20041;-85
2021/01/21 08:11:23;;;;;;;0.60;0.50;;;11.50;96.50;;;;;;4188855;28;20587;-84
2021/01/21 08:13:24;;;;;;;0.20;0.10;;;11.50;96.30;;;;;;4182269;28;20063;-84
2021/01/21 08:15:27;;;;;;;0.20;0.20;;;11.50;96.00;;;;;;4181905;28;20049;-84
2021/01/21 08:17:28;;;;;;;2.60;0.30;;;11.50;96.10;;;;;;4185430;28;20055;-86
2021/01/21 08:19:29;;;;;;;0.17;0.17;;;11.50;96.50;;;;;;4198670;28;20056;-84
2021/01/21 08:21:30;;;;;;;0.22;0.20;;;11.50;96.20;;;;;;4179571;28;20071;-85
2021/01/21 08:23:32;;;;;;;0.20;0.20;;;11.50;96.20;;;;;;4197483;28;20139;-86
2021/01/21 08:25:43;;;;;;;0.95;0.80;;;11.60;96.20;;;;;;4198201;28;20066;-84
2021/01/21 08:27:45;;;;;;;0.10;0.10;;;11.60;96.00;;;;;;4198212;28;20052;-84
2021/01/21 08:29:46;;;;;;;0.63;0.20;;;11.60;96.00;;;;;;4206705;28;20048;-83
2021/01/21 08:31:48;;;;;;;0.15;0.13;;;11.60;96.00;;;;;;4212310;28;20100;-83
2021/01/21 08:33:50;;;;;;;1.15;0.38;;;11.70;95.90;;;;;;4197599;28;20135;-86
2021/01/21 08:35:57;;;;;;;0.10;0.10;;;11.70;96.00;;;;;;4162873;28;20050;-86
2021/01/21 08:38:01;;;;;;;16.13;0.40;;;11.80;95.50;;;;;;4213739;28;20055;-82
2021/01/21 08:40:03;;;;;;;0.20;0.20;;;11.80;95.20;;;;;;4196516;28;20159;-83
2021/01/21 08:42:07;;;;;;;0.10;0.10;;;11.90;95.30;;;;;;4179598;28;20449;-83
2021/01/21 08:44:14;;;;;;;0.50;0.40;;;11.90;94.90;;;;;;4165352;28;20521;-86
2021/01/21 08:46:22;;;;;;;0.20;0.20;;;11.90;95.10;;;;;;4178224;28;20051;-85
2021/01/21 08:48:28;;;;;;;0.10;0.10;;;11.90;95.00;;;;;;4195877;28;20091;-85
2021/01/21 08:50:34;;;;;;;0.85;0.63;;;11.90;94.80;;;;;;4195821;28;20056;-84
2021/01/21 08:52:36;;;;;;;0.10;0.10;;;12.00;95.00;;;;;;4198114;28;20057;-84
2021/01/21 08:54:37;;;;;;;0.32;0.13;;;12.00;94.80;;;;;;4179394;28;20059;-85
2021/01/21 08:56:39;;;;;;;0.98;0.90;;;12.10;94.90;;;;;;4162658;28;20046;-84
2021/01/21 08:58:40;;;;;;;0.10;0.10;;;12.10;94.70;;;;;;4181436;28;20509;-84
2021/01/21 09:00:59;;;;;;;0.10;0.10;;;12.20;94.20;;;;;;4196040;28;20136;-83
2021/01/21 09:03:01;;;;;;;6.05;1.48;;;12.20;94.30;;;;;;4193640;28;20131;-86
2021/01/21 09:05:03;;;;;;;0.30;0.30;;;12.30;94.30;;;;;;4197204;28;20040;-85
2021/01/21 09:07:06;;;;;;;0.30;0.22;;;12.20;94.10;;;;;;4197565;28;20048;-84
2021/01/21 09:09:08;;;;;;;0.10;0.10;;;12.30;93.80;;;;;;4180347;28;20050;-84
2021/01/21 09:11:25;;;;;;;0.25;0.20;;;12.40;93.60;;;;;;4179349;28;20053;-85
2021/01/21 09:13:26;;;;;;;0.10;0.10;;;12.40;93.40;;;;;;4197777;28;20135;-85
2021/01/21 09:15:27;;;;;;;0.10;0.10;;;12.40;93.80;;;;;;4195536;28;20048;-85
2021/01/21 09:17:29;;;;;;;0.13;0.13;;;12.40;93.30;;;;;;4195877;28;20127;-85
2021/01/21 09:19:31;;;;;;;0.10;0.10;;;12.40;93.50;;;;;;4197089;28;20101;-86
2021/01/21 09:21:32;;;;;;;0.40;0.30;;;12.50;93.50;;;;;;4196304;28;20052;-84
2021/01/21 09:23:35;;;;;;;1.98;0.20;;;12.50;93.20;;;;;;4195377;28;20044;-84
2021/01/21 09:25:36;;;;;;;0.10;0.10;;;12.50;93.20;;;;;;4180952;28;20482;-83
2021/01/21 09:27:38;;;;;;;0.22;0.22;;;12.50;93.10;;;;;;4193673;28;20048;-84
2021/01/21 09:29:58;;;;;;;0.25;0.20;;;12.50;93.10;;;;;;4196182;28;20052;-86
2021/01/21 09:32:02;;;;;;;0.10;0.10;;;12.50;93.40;;;;;;4181880;28;20930;-85
2021/01/21 09:34:03;;;;;;;0.13;0.13;;;12.50;93.00;;;;;;4197191;28;20045;-86
2021/01/21 09:36:05;;;;;;;0.10;0.10;;;12.60;93.10;;;;;;4198767;28;20037;-83
2021/01/21 09:38:06;;;;;;;0.73;0.40;;;12.50;93.10;;;;;;4166309;28;20045;-84
2021/01/21 09:40:19;;;;;;;0.10;0.10;;;12.50;93.20;;;;;;4199955;28;20048;-86
2021/01/21 09:42:24;;;;;;;0.43;0.10;;;12.50;93.30;;;;;;4175330;28;20501;-84
2021/01/21 09:44:25;;;;;;;0.10;0.10;;;12.50;93.50;;;;;;4180338;28;20041;-85
2021/01/21 09:46:26;;;;;;;0.32;0.20;;;12.50;93.80;;;;;;4196744;28;20099;-85
2021/01/21 09:48:28;;;;;;;0.10;0.10;;;12.50;93.40;;;;;;4178169;28;20565;-85
2021/01/21 09:50:29;;;;;;;1.00;0.93;;;12.50;93.30;;;;;;4193645;28;20476;-86
2021/01/21 09:52:32;;;;;;;0.30;0.20;;;12.50;93.50;;;;;;4195000;28;20070;-87
2021/01/21 09:54:33;;;;;;;0.08;0.08;;;12.50;93.50;;;;;;4194970;28;20143;-86
2021/01/21 09:56:35;;;;;;;0.10;0.10;;;12.50;93.40;;;;;;4180007;28;20437;-86
2021/01/21 09:58:36;;;;;;;0.10;0.10;;;12.60;93.40;;;;;;4180982;28;20400;-89
2021/01/21 10:00:37;;;;;;;1.00;0.38;;;12.60;93.60;;;;;;4194610;28;20044;-85
2021/01/21 10:02:39;;;;;;;3.30;0.65;;;12.50;93.70;;;;;;4194815;28;20055;-84
2021/01/21 10:04:40;;;;;;;0.10;0.10;;;12.50;93.60;;;;;;4196293;28;20520;-85
2021/01/21 10:06:42;;;;;;;0.10;0.10;;;12.50;93.70;;;;;;4210437;28;20052;-85
2021/01/21 10:08:43;;;;;;;1.08;0.47;;;12.50;93.80;;;;;;4211466;28;20066;-84
2021/01/21 10:10:44;;;;;;;0.10;0.10;;;12.50;93.70;;;;;;4195848;28;20052;-85
2021/01/21 10:12:45;;;;;;;0.43;0.40;;;12.50;93.60;;;;;;4196928;28;20044;-84
2021/01/21 10:14:47;;;;;;;2.55;0.40;;;12.50;93.60;;;;;;4194403;28;20044;-84
2021/01/21 10:16:48;;;;;;;0.20;0.20;;;12.60;93.60;;;;;;4195327;28;20048;-84
2021/01/21 10:18:49;;;;;;;0.10;0.10;;;12.60;93.40;;;;;;4189549;28;20510;-84
2021/01/21 10:20:51;;;;;;;0.40;0.20;;;12.60;93.70;;;;;;4190728;28;20119;-85
2021/01/21 10:22:53;;;;;;;0.55;0.20;;;12.60;93.60;;;;;;4188935;28;20132;-83
2021/01/21 10:24:54;;;;;;;0.17;0.17;;;12.60;93.70;;;;;;4192181;28;20047;-84
2021/01/21 10:26:56;;;;;;;0.63;0.20;;;12.70;93.70;;;;;;4197729;28;20048;-84
2021/01/21 10:28:57;;;;;;;0.73;0.57;;;12.70;93.70;;;;;;4201909;28;20481;-85
2021/01/21 10:30:59;;;;;;;1.08;0.98;;;12.80;93.50;;;;;;4196760;28;20051;-85
2021/01/21 10:33:01;;;;;;;0.30;0.30;;;12.80;93.40;;;;;;4179150;28;20811;-85
2021/01/21 10:35:04;;;;;;;1.02;0.35;;;12.90;93.30;;;;;;4179669;28;20052;-85
2021/01/21 10:37:05;;;;;;;0.40;0.40;;;12.90;93.30;;;;;;4196661;28;20048;-85
2021/01/21 10:39:09;;;;;;;0.30;0.25;;;13.00;92.80;;;;;;4180264;28;20049;-85
2021/01/21 10:41:10;;;;;;;0.73;0.25;;;13.00;92.90;;;;;;4195689;28;20053;-85
2021/01/21 10:43:12;;;;;;;0.65;0.65;;;13.00;92.70;;;;;;4199251;28;20075;-84
2021/01/21 10:45:13;;;;;;;0.10;0.10;;;13.00;92.60;;;;;;4193304;28;20551;-86